Main page
METAR-TAF:

METAR-TAF

Airports :

Stornoway Airport

Stornoway, Scotland

latitude: 58-13N, longitude: 006-19W, elevation: 9 m

Current weather observation

The report was made 32 minutes ago, at 06:20 UTC
Wind 17 kt from the West
Temperature 5°C
Humidity 81%
Pressure 1012 hPa
Visibility 10 km or more
light rain

METAR: EGPO 170620Z AUTO 28017KT 9999 -RA FEW022/// BKN032/// 05/02 Q1012

Time: 06:52 (06:52 UTC)

Forecast

The report was made 1 hour and 53 minutes ago, at 04:59 UTC
Forecast valid from 17 at 06 UTC to 17 at 15 UTC
Wind 17 kt from the West
Visibility 10 km or more
Scattered clouds at a height of 2000 ft
Temporary
from 17 at 06 UTC to 17 at 15 UTC
Wind 20 kt from the West with gusts up to 32 kt
Visibility: 6000 m
rain showers
Probability 30% :
Temporary
from 17 at 11 UTC to 17 at 14 UTC
Visibility: 3000 m
Broken clouds at a height of 800 ft
heavy rain showers

TAF: EGPO 170459Z 1706/1715 27017KT 9999 SCT020 TEMPO 1706/1715 27020G32KT 6000 SHRA PROB30 TEMPO 1711/1714 3000 +SHRA BKN008

Weather observations and forecasts of more than 4000 airports (METAR and TAF reports).

The available stations are represented by yellow and red dots on the map.

Hover mouse over dot to see the name of the station.

Then click to see weather observations and forecasts.

To change the map : click on the green buttons with a black cross to zoom in, on the green button with a dash to zoom out, or on the green arrows for adjacent maps.


METAR-TAF: